Taf
 
Misión y Visión

La misión es proporcionar información fiable a la navegación aérea, contribuyendo a la seguridad, regularidad y eficiencia de la Navegación Aérea Internacional

La visión es contribuir sustancialmente al desarrollo de conocimientos y a la utilización de la meteorología aeronáutica a nivel nacional e internacional, mediante la innovación y la coparticipación con sectores sociales y productivos de la sociedad.

 
  Inicio
  Metar
  Taf
  Wintemp
  SIGMET
  Avisos
  Pronósticos
  Carpeta Meteorologica
  Imágenes Satelitales
  Climatología Aeronáutica
   
  ¿Quienes Somos?
  Contacto
  Eventos
Taf

 

IMÁGENES DEL AEROPUERTO
(EN CONSTRUCCION)

 

PRONOSTICO DE AERÓDROMO
TAF / PROYECCION CLIMATICA
MES DE JULIO

 

AEROPUERTO ENRIQUE MALEK:

TAF MPSM 181700Z


TAF:

TAF MPDA 192300Z 2000/2012 21007KT 9999 SCT018 SCT090

 

AEROPUERTO PANAMA PACIFICO:

hola



TAF:



AEROPUERTO MARCOS A. GELABERT:

TAF MPMG 192300Z 2000/2012 30006KT 9999 SCT018 SCT090



TAF:



AEROPUERTO INTL. DE TOCUMEN:

TAF MPTO 192300Z 2000/2106 28006KT 9999 SCT018 SCT090 TEMPO 2014/2018 05006KT PROB40 TEMPO 2016/2020 19008KT 5000 TSRA SCT014CB BKN080



TAF:

TAF MPPA 192300Z 2000/2106 33006KT 9999 SCT018 SCT090 PROB30 TEMPO 2017/2021 17008KT 5000 TSRA SCT014CB BKN080